createdAt,value
2023-02-17T00:01:01.447Z,13.6
2023-02-17T00:06:41.531Z,13.6
2023-02-17T00:12:03.473Z,13.6
2023-02-17T00:17:40.904Z,13.5
2023-02-17T00:23:03.260Z,13.3
2023-02-17T00:28:40.111Z,13.3
2023-02-17T00:34:17.727Z,13.4
2023-02-17T00:39:55.429Z,13.4
2023-02-17T00:45:31.584Z,13.6
2023-02-17T00:51:09.515Z,13.7
2023-02-17T00:56:47.720Z,13.6
2023-02-17T01:02:08.814Z,13.5
2023-02-17T01:07:45.861Z,13.4
2023-02-17T01:13:08.810Z,13.3
2023-02-17T01:18:45.447Z,13.4
2023-02-17T01:24:21.813Z,13.6
2023-02-17T01:30:00.180Z,13.6
2023-02-17T01:35:22.727Z,13.4
2023-02-17T01:41:00.017Z,13.4
2023-02-17T01:46:22.077Z,13.3
2023-02-17T01:51:43.405Z,13.4
2023-02-17T01:57:20.468Z,13.4
2023-02-17T02:02:59.274Z,13.5
2023-02-17T02:08:36.255Z,13.5
2023-02-17T02:14:13.139Z,13.4
2023-02-17T02:19:50.930Z,13.3
2023-02-17T02:25:26.914Z,13.2
2023-02-17T02:31:05.000Z,13.3
2023-02-17T02:36:42.864Z,13.4
2023-02-17T02:42:19.919Z,13.5
2023-02-17T02:47:41.802Z,13.4
2023-02-17T02:52:48.648Z,13.3
2023-02-17T02:58:09.578Z,13.2
2023-02-17T03:03:46.404Z,13.3
2023-02-17T03:09:24.028Z,13.3
2023-02-17T03:15:00.131Z,13.3
2023-02-17T03:20:37.297Z,13.3
2023-02-17T03:26:15.169Z,13.4
2023-02-17T03:31:52.614Z,13.6
2023-02-17T03:37:14.866Z,13.4
2023-02-17T03:42:52.616Z,13.4
2023-02-17T03:48:28.563Z,13.3
2023-02-17T03:53:50.169Z,13.3
2023-02-17T03:59:28.259Z,13.4
2023-02-17T04:05:04.941Z,13.6
2023-02-17T04:10:42.937Z,13.4
2023-02-17T04:16:21.055Z,13.4
2023-02-17T04:21:56.933Z,13.3
2023-02-17T04:27:18.845Z,13.3
2023-02-17T04:32:44.882Z,13.4
2023-02-17T04:38:25.021Z,13.5
2023-02-17T04:44:02.928Z,13.6
2023-02-17T04:49:41.276Z,13.4
2023-02-17T04:55:16.922Z,13.3
2023-02-17T05:00:39.063Z,13.2
2023-02-17T05:06:17.158Z,13.4
2023-02-17T05:11:54.365Z,13.4
2023-02-17T05:17:33.202Z,13.5
2023-02-17T05:23:10.612Z,13.5
2023-02-17T05:28:48.281Z,13.4
2023-02-17T05:34:10.864Z,13.3
2023-02-17T05:39:48.887Z,13.3
2023-02-17T05:45:26.161Z,13.3
2023-02-17T05:51:03.804Z,13.3
2023-02-17T05:56:41.872Z,13.3
2023-02-17T06:02:19.272Z,13.4
2023-02-17T06:07:56.905Z,13.4
2023-02-17T06:13:19.113Z,13.4
2023-02-17T06:18:58.264Z,13.3
2023-02-17T06:24:35.466Z,13.2
2023-02-17T06:29:59.213Z,13.3
2023-02-17T06:35:35.767Z,13.4
2023-02-17T06:41:13.389Z,13.5
2023-02-17T06:46:51.166Z,13.4
2023-02-17T06:52:28.469Z,13.3
2023-02-17T06:58:05.268Z,13.3
2023-02-17T07:03:44.653Z,13.2
2023-02-17T07:09:21.946Z,13.4
2023-02-17T07:14:43.543Z,13.5
2023-02-17T07:20:06.572Z,13.5
2023-02-17T07:25:44.022Z,13.4
2023-02-17T07:31:06.565Z,13.3
2023-02-17T07:36:28.806Z,13.2
2023-02-17T07:42:07.881Z,13.3
2023-02-17T07:47:46.856Z,13.4
2023-02-17T07:53:24.190Z,13.4
2023-02-17T07:59:01.677Z,13.4
2023-02-17T08:04:38.956Z,13.3
2023-02-17T08:10:16.726Z,13.3
2023-02-17T08:15:55.559Z,13.4
2023-02-17T08:21:32.874Z,13.5
2023-02-17T08:27:10.728Z,13.6
2023-02-17T08:32:49.081Z,13.4
2023-02-17T08:38:26.021Z,13.6
2023-02-17T08:43:47.506Z,13.6
2023-02-17T08:49:26.757Z,13.5
2023-02-17T08:55:07.522Z,13.5
2023-02-17T09:00:39.731Z,13.6
2023-02-17T09:06:01.889Z,13.6
2023-02-17T09:11:26.175Z,13.6
2023-02-17T09:17:04.235Z,13.6
2023-02-17T09:23:04.420Z,13.7
2023-02-17T09:28:26.288Z,13.7
2023-02-17T09:33:50.250Z,13.6
2023-02-17T09:39:13.654Z,13.6
2023-02-17T09:44:51.528Z,13.8
2023-02-17T09:50:23.294Z,13.7
2023-02-17T09:56:01.089Z,13.6
2023-02-17T10:01:25.652Z,13.8
2023-02-17T10:07:07.047Z,13.8
2023-02-17T10:12:29.150Z,13.8
2023-02-17T10:17:52.790Z,13.7
2023-02-17T10:23:30.653Z,13.6
2023-02-17T10:29:08.386Z,13.6
2023-02-17T10:34:50.055Z,13.6
2023-02-17T10:40:12.248Z,13.6
2023-02-17T10:45:22.434Z,13.6
2023-02-17T10:50:47.990Z,13.5
2023-02-17T10:56:24.616Z,13.5
2023-02-17T11:01:47.106Z,13.4
2023-02-17T11:06:53.190Z,13.6
2023-02-17T11:12:14.621Z,13.6
2023-02-17T11:17:55.251Z,13.5
2023-02-17T11:23:36.104Z,13.4
2023-02-17T11:28:58.254Z,13.4
2023-02-17T11:34:36.483Z,13.4
2023-02-17T11:40:14.994Z,13.6
2023-02-17T11:45:35.865Z,13.6
2023-02-17T11:51:13.443Z,13.6
2023-02-17T11:56:50.620Z,13.5
2023-02-17T12:02:27.928Z,13.4
2023-02-17T12:08:05.795Z,13.5
2023-02-17T12:13:27.433Z,13.7
2023-02-17T12:18:50.196Z,13.7
2023-02-17T12:23:55.401Z,13.7
2023-02-17T12:29:34.799Z,13.6
2023-02-17T12:34:57.828Z,13.6
2023-02-17T12:40:19.397Z,13.7
2023-02-17T12:45:41.623Z,13.9
2023-02-17T12:51:05.023Z,13.9
2023-02-17T12:56:28.365Z,13.9
2023-02-17T13:01:50.821Z,13.9
2023-02-17T13:07:13.405Z,13.8
2023-02-17T13:12:34.427Z,13.9
2023-02-17T13:17:41.074Z,14.1
2023-02-17T13:23:03.364Z,14.2
2023-02-17T13:28:24.719Z,14.1
2023-02-17T13:33:46.679Z,14.1
2023-02-17T13:39:09.665Z,14
2023-02-17T13:44:33.413Z,13.9
2023-02-17T13:49:55.864Z,14.2
2023-02-17T13:55:35.351Z,14.3
2023-02-17T14:00:56.016Z,14.3
2023-02-17T14:06:28.550Z,14.3
2023-02-17T14:11:51.194Z,14.4
2023-02-17T14:17:13.159Z,14.4
2023-02-17T14:23:03.482Z,14.4
2023-02-17T14:28:40.586Z,14.4
2023-02-17T14:34:17.820Z,14.3
2023-02-17T14:39:55.037Z,14.2
2023-02-17T14:45:33.560Z,14.1
2023-02-17T14:51:12.025Z,14
2023-02-17T14:56:34.021Z,13.9
2023-02-17T15:02:11.089Z,13.8
2023-02-17T15:07:53.492Z,13.8
2023-02-17T15:13:30.027Z,13.7
2023-02-17T15:19:07.881Z,13.6
2023-02-17T15:24:49.696Z,13.5
2023-02-17T15:30:28.521Z,13.4
2023-02-17T15:36:07.603Z,13.4
2023-02-17T15:41:48.002Z,13.3
2023-02-17T15:47:11.764Z,13.2
2023-02-17T15:52:35.115Z,13.1
2023-02-17T15:58:12.711Z,13.1
2023-02-17T16:03:51.071Z,13
2023-02-17T16:09:29.242Z,12.9
2023-02-17T16:15:06.530Z,12.9
2023-02-17T16:20:43.642Z,12.9
2023-02-17T16:26:06.925Z,12.8
2023-02-17T16:31:45.458Z,12.8
2023-02-17T16:36:52.778Z,12.7
2023-02-17T16:42:32.629Z,12.6
2023-02-17T16:48:10.902Z,12.6
2023-02-17T16:53:50.888Z,12.6
2023-02-17T16:59:29.440Z,12.6
2023-02-17T17:05:08.046Z,12.9
2023-02-17T17:11:05.634Z,13.4
2023-02-17T17:16:27.494Z,13.7
2023-02-17T17:22:04.971Z,13.8
2023-02-17T17:27:42.139Z,13.9
2023-02-17T17:33:05.507Z,14
2023-02-17T17:38:30.002Z,14.1
2023-02-17T17:43:51.882Z,13.9
2023-02-17T17:48:56.059Z,13.8
2023-02-17T17:54:36.138Z,13.9
2023-02-17T18:00:13.349Z,14.1
2023-02-17T18:05:54.424Z,14.2
2023-02-17T18:11:28.653Z,14.1
2023-02-17T18:17:06.572Z,14.3
2023-02-17T18:22:44.242Z,14.3
2023-02-17T18:28:25.155Z,14.2
2023-02-17T18:34:03.952Z,14.1
2023-02-17T18:39:42.186Z,14.3
2023-02-17T18:45:19.253Z,14.4
2023-02-17T18:50:40.810Z,14.4
2023-02-17T18:56:02.887Z,14.3
2023-02-17T19:01:39.676Z,14.4
2023-02-17T19:07:16.934Z,14.5
2023-02-17T19:12:53.635Z,14.5
2023-02-17T19:18:30.560Z,14.4
2023-02-17T19:24:07.428Z,14.4
2023-02-17T19:29:44.968Z,14.5
2023-02-17T19:35:22.967Z,14.5
2023-02-17T19:40:59.679Z,14.4
2023-02-17T19:46:24.966Z,14.4
2023-02-17T19:52:01.316Z,14.4
2023-02-17T19:57:39.084Z,14.5
2023-02-17T20:03:00.772Z,14.4
2023-02-17T20:08:38.231Z,14.2
2023-02-17T20:14:19.352Z,14.1
2023-02-17T20:19:55.800Z,14.1
2023-02-17T20:25:34.015Z,14.2
2023-02-17T20:30:55.657Z,14.3
2023-02-17T20:36:34.518Z,14.3
2023-02-17T20:42:12.107Z,14.2
2023-02-17T20:47:35.073Z,14.1
2023-02-17T20:53:13.107Z,14.1
2023-02-17T20:58:50.822Z,14.1
2023-02-17T21:04:29.109Z,14.2
2023-02-17T21:10:06.504Z,14.1
2023-02-17T21:15:43.568Z,14.1
2023-02-17T21:21:20.732Z,14
2023-02-17T21:26:58.162Z,14.1
2023-02-17T21:32:36.025Z,14.1
2023-02-17T21:38:12.809Z,14.2
2023-02-17T21:43:36.507Z,14.3
2023-02-17T21:48:59.118Z,14.4
2023-02-17T21:54:20.728Z,14.3
2023-02-17T21:59:58.959Z,14.2
2023-02-17T22:05:19.960Z,14.1
2023-02-17T22:10:56.025Z,13.9
2023-02-17T22:16:16.627Z,14
2023-02-17T22:21:53.947Z,14.2
2023-02-17T22:27:31.012Z,14.4
2023-02-17T22:33:09.783Z,14.4
2023-02-17T22:38:45.854Z,14.3
2023-02-17T22:44:22.298Z,14.3
2023-02-17T22:50:00.012Z,14.4
2023-02-17T22:55:37.641Z,14.4
2023-02-17T23:00:59.230Z,14.4
2023-02-17T23:06:39.882Z,14.3
2023-02-17T23:12:02.192Z,14.1
2023-02-17T23:17:39.461Z,14
2023-02-17T23:23:16.958Z,14
2023-02-17T23:28:54.624Z,14.2
2023-02-17T23:34:31.818Z,14.3
2023-02-17T23:39:53.380Z,14.4
2023-02-17T23:45:31.799Z,14.3
2023-02-17T23:51:09.825Z,14.2
2023-02-17T23:56:47.351Z,14.1
